createdAt,value
2023-04-26T00:00:14.110Z,56.78
2023-04-26T00:03:03.884Z,57.19
2023-04-26T00:05:33.306Z,57.11
2023-04-26T00:08:01.660Z,57.09
2023-04-26T00:10:32.348Z,57.12
2023-04-26T00:13:00.742Z,57.25
2023-04-26T00:15:29.593Z,57.74
2023-04-26T00:17:58.339Z,57.53
2023-04-26T00:20:27.087Z,57.58
2023-04-26T00:22:55.690Z,57.73
2023-04-26T00:25:24.488Z,57.44
2023-04-26T00:27:55.387Z,57.58
2023-04-26T00:30:24.263Z,58.04
2023-04-26T00:32:52.736Z,58.05
2023-04-26T00:35:21.903Z,58.39
2023-04-26T00:37:50.923Z,57.87
2023-04-26T00:40:20.776Z,57.93
2023-04-26T00:42:49.507Z,58.82
2023-04-26T00:45:20.121Z,58.23
2023-04-26T00:47:48.558Z,58.07
2023-04-26T00:50:19.402Z,58.30
2023-04-26T00:52:48.796Z,59.25
2023-04-26T00:55:18.546Z,60.00
2023-04-26T00:57:48.727Z,58.39
2023-04-26T01:00:19.870Z,58.58
2023-04-26T01:02:48.810Z,58.47
2023-04-26T01:05:18.571Z,58.32
2023-04-26T01:07:47.979Z,58.58
2023-04-26T01:10:16.516Z,58.30
2023-04-26T01:12:45.224Z,58.68
2023-04-26T01:15:13.894Z,58.68
2023-04-26T01:17:48.300Z,58.88
2023-04-26T01:20:18.246Z,57.95
2023-04-26T01:22:48.161Z,58.46
2023-04-26T01:25:20.796Z,58.41
2023-04-26T01:27:49.418Z,58.42
2023-04-26T01:30:18.638Z,58.06
2023-04-26T01:32:47.335Z,58.24
2023-04-26T01:35:16.182Z,58.61
2023-04-26T01:37:44.515Z,58.63
2023-04-26T01:40:15.491Z,58.20
2023-04-26T01:42:44.430Z,58.30
2023-04-26T01:45:13.582Z,57.71
2023-04-26T01:48:00.451Z,57.79
2023-04-26T01:50:29.830Z,57.91
2023-04-26T01:52:58.692Z,58.04
2023-04-26T01:55:28.923Z,58.34
2023-04-26T01:57:57.364Z,58.83
2023-04-26T02:00:26.220Z,58.62
2023-04-26T02:02:56.428Z,58.46
2023-04-26T02:05:25.720Z,58.29
2023-04-26T02:07:54.432Z,58.33
2023-04-26T02:10:23.311Z,58.49
2023-04-26T02:12:54.615Z,58.46
2023-04-26T02:15:23.469Z,59.02
2023-04-26T02:17:53.812Z,58.26
2023-04-26T02:20:23.082Z,58.18
2023-04-26T02:22:52.147Z,59.12
2023-04-26T02:25:21.475Z,57.97
2023-04-26T02:27:49.897Z,58.30
2023-04-26T02:30:20.178Z,58.47
2023-04-26T02:32:48.663Z,59.16
2023-04-26T02:35:17.480Z,58.87
2023-04-26T02:37:49.049Z,58.08
2023-04-26T02:40:18.036Z,58.43
2023-04-26T02:42:46.938Z,58.83
2023-04-26T02:45:16.336Z,59.35
2023-04-26T02:47:46.390Z,58.44
2023-04-26T02:50:15.552Z,58.53
2023-04-26T02:52:44.291Z,58.52
2023-04-26T02:55:13.276Z,59.16
2023-04-26T02:57:42.397Z,58.25
2023-04-26T03:00:14.126Z,58.59
2023-04-26T03:02:43.214Z,58.78
2023-04-26T03:05:14.107Z,58.83
2023-04-26T03:07:43.462Z,59.21
2023-04-26T03:10:12.899Z,58.86
2023-04-26T03:12:42.644Z,58.71
2023-04-26T03:15:11.690Z,58.86
2023-04-26T03:17:43.208Z,58.25
2023-04-26T03:20:16.489Z,59.19
2023-04-26T03:22:45.735Z,58.97
2023-04-26T03:25:16.368Z,59.24
2023-04-26T03:27:45.161Z,59.17
2023-04-26T03:30:15.272Z,59.44
2023-04-26T03:32:45.897Z,59.35
2023-04-26T03:35:16.348Z,59.00
2023-04-26T03:37:44.858Z,59.52
2023-04-26T03:40:17.195Z,58.61
2023-04-26T03:42:47.636Z,59.70
2023-04-26T03:45:17.949Z,59.43
2023-04-26T03:47:47.355Z,59.44
2023-04-26T03:50:17.928Z,59.30
2023-04-26T03:52:47.773Z,58.83
2023-04-26T03:55:17.625Z,59.25
2023-04-26T03:57:46.314Z,59.18
2023-04-26T04:00:15.776Z,58.99
2023-04-26T04:02:44.574Z,59.33
2023-04-26T04:05:22.593Z,59.12
2023-04-26T04:07:52.268Z,59.16
2023-04-26T04:10:23.266Z,58.57
2023-04-26T04:12:52.182Z,59.44
2023-04-26T04:15:21.804Z,59.41
2023-04-26T04:17:50.638Z,60.06
2023-04-26T04:20:21.899Z,59.28
2023-04-26T04:22:51.287Z,59.54
2023-04-26T04:25:21.335Z,59.40
2023-04-26T04:30:19.745Z,59.12
2023-04-26T04:32:48.190Z,58.99
2023-04-26T04:35:19.008Z,58.79
2023-04-26T04:37:50.231Z,58.91
2023-04-26T04:40:19.048Z,59.26
2023-04-26T04:42:49.343Z,58.81
2023-04-26T04:45:19.329Z,59.03
2023-04-26T04:47:47.981Z,58.60
2023-04-26T04:50:16.862Z,58.45
2023-04-26T04:52:45.916Z,58.27
2023-04-26T04:55:16.885Z,58.72
2023-04-26T04:57:46.211Z,58.57
2023-04-26T05:00:16.044Z,58.19
2023-04-26T05:03:16.841Z,57.87
2023-04-26T05:05:46.788Z,58.38
2023-04-26T05:08:16.878Z,57.91
2023-04-26T05:10:48.221Z,57.34
2023-04-26T05:13:16.626Z,57.61
2023-04-26T05:15:46.438Z,57.73
2023-04-26T05:18:15.644Z,57.74
2023-04-26T05:20:44.674Z,58.37
2023-04-26T05:23:13.509Z,58.61
2023-04-26T05:25:42.551Z,58.75
2023-04-26T05:28:32.553Z,57.57
2023-04-26T05:31:24.609Z,57.92
2023-04-26T05:34:20.251Z,57.55
2023-04-26T05:36:53.133Z,58.04
2023-04-26T05:39:22.008Z,57.80
2023-04-26T05:41:51.511Z,57.78
2023-04-26T05:44:21.779Z,58.03
2023-04-26T05:46:53.311Z,56.80
2023-04-26T05:49:21.975Z,57.05
2023-04-26T05:51:50.721Z,56.65
2023-04-26T05:54:19.040Z,56.67
2023-04-26T05:56:48.081Z,56.17
2023-04-26T05:59:16.775Z,56.00
2023-04-26T06:01:47.626Z,56.52
2023-04-26T06:04:16.885Z,54.78
2023-04-26T06:07:03.548Z,54.67
2023-04-26T06:09:33.434Z,55.28
2023-04-26T06:12:02.472Z,54.27
2023-04-26T06:14:32.628Z,55.13
2023-04-26T06:17:07.839Z,55.14
2023-04-26T06:19:36.563Z,55.32
2023-04-26T06:22:05.410Z,54.40
2023-04-26T06:24:34.003Z,55.19
2023-04-26T06:27:02.649Z,54.73
2023-04-26T06:29:35.347Z,54.91
2023-04-26T06:32:05.809Z,54.77
2023-04-26T06:34:38.027Z,54.38
2023-04-26T06:37:07.646Z,54.73
2023-04-26T06:39:38.942Z,53.95
2023-04-26T06:42:08.208Z,54.42
2023-04-26T06:45:02.665Z,54.08
2023-04-26T06:47:35.651Z,52.68
2023-04-26T06:50:06.764Z,53.83
2023-04-26T06:52:35.921Z,53.76
2023-04-26T06:55:05.129Z,52.19
2023-04-26T06:57:34.593Z,52.38
2023-04-26T07:00:03.833Z,51.76
2023-04-26T07:02:33.132Z,50.50
2023-04-26T07:05:02.274Z,50.60
2023-04-26T07:07:33.941Z,50.89
2023-04-26T07:10:02.512Z,51.63
2023-04-26T07:12:32.028Z,52.11
2023-04-26T07:15:01.621Z,52.19
2023-04-26T07:17:31.126Z,51.68
2023-04-26T07:20:00.313Z,51.83
2023-04-26T07:22:29.284Z,51.72
2023-04-26T07:24:59.260Z,52.10
2023-04-26T07:27:28.827Z,51.23
2023-04-26T07:29:57.753Z,50.67
2023-04-26T07:32:27.123Z,51.73
2023-04-26T07:34:56.079Z,52.37
2023-04-26T07:37:25.224Z,51.84
2023-04-26T07:39:54.117Z,51.23
2023-04-26T07:42:24.741Z,50.71
2023-04-26T07:44:55.352Z,50.37
2023-04-26T07:47:24.514Z,51.18
2023-04-26T07:49:55.193Z,50.02
2023-04-26T07:52:24.387Z,50.47
2023-04-26T07:54:53.530Z,50.11
2023-04-26T07:57:22.836Z,51.28
2023-04-26T07:59:53.206Z,50.39
2023-04-26T08:02:29.880Z,50.97
2023-04-26T08:05:06.404Z,51.35
2023-04-26T08:07:35.539Z,50.11
2023-04-26T08:10:04.677Z,50.13
2023-04-26T08:12:36.201Z,50.25
2023-04-26T08:15:07.258Z,49.32
2023-04-26T08:17:36.460Z,50.74
2023-04-26T08:20:06.570Z,50.76
2023-04-26T08:22:36.001Z,50.23
2023-04-26T08:25:05.813Z,50.37
2023-04-26T08:27:37.147Z,50.42
2023-04-26T08:30:08.491Z,51.72
2023-04-26T08:32:37.539Z,53.52
2023-04-26T08:35:07.082Z,54.87
2023-04-26T08:37:36.651Z,56.47
2023-04-26T08:40:07.502Z,57.53
2023-04-26T08:42:41.131Z,58.74
2023-04-26T08:45:12.879Z,58.40
2023-04-26T08:47:46.332Z,58.21
2023-04-26T08:50:17.051Z,59.89
2023-04-26T08:52:46.261Z,60.27
2023-04-26T08:55:16.603Z,61.13
2023-04-26T08:57:48.240Z,61.45
2023-04-26T09:00:20.634Z,61.29
2023-04-26T09:02:52.147Z,61.04
2023-04-26T09:05:24.396Z,61.57
2023-04-26T09:07:58.186Z,62.03
2023-04-26T09:10:27.113Z,62.55
2023-04-26T09:12:57.286Z,62.63
2023-04-26T09:15:28.392Z,64.22
2023-04-26T09:17:57.562Z,62.85
2023-04-26T09:20:28.006Z,63.27
2023-04-26T09:23:08.166Z,64.08
2023-04-26T09:25:37.338Z,65.99
2023-04-26T09:28:21.273Z,64.07
2023-04-26T09:30:52.406Z,62.78
2023-04-26T09:33:21.676Z,62.04
2023-04-26T09:35:50.633Z,61.53
2023-04-26T09:38:20.234Z,60.65
2023-04-26T09:40:50.281Z,59.69
2023-04-26T09:43:20.830Z,61.04
2023-04-26T09:45:52.450Z,60.09
2023-04-26T09:48:23.153Z,60.10
2023-04-26T09:50:54.585Z,59.32
2023-04-26T09:53:28.909Z,60.03
2023-04-26T09:55:58.372Z,59.02
2023-04-26T09:58:27.037Z,59.42
2023-04-26T10:00:58.498Z,57.74
2023-04-26T10:03:28.532Z,58.80
2023-04-26T10:05:58.164Z,58.58
2023-04-26T10:08:26.972Z,59.69
2023-04-26T10:10:58.847Z,58.22
2023-04-26T10:13:29.678Z,58.71
2023-04-26T10:16:01.189Z,58.08
2023-04-26T10:18:31.638Z,59.43
2023-04-26T10:21:04.013Z,58.13
2023-04-26T10:23:33.774Z,60.33
2023-04-26T10:26:02.664Z,59.29
2023-04-26T10:29:02.119Z,58.76
2023-04-26T10:32:18.741Z,60.09
2023-04-26T10:35:13.068Z,57.71
2023-04-26T10:38:11.996Z,59.43
2023-04-26T10:40:42.146Z,59.59
2023-04-26T10:43:31.150Z,59.18
2023-04-26T10:46:39.851Z,59.65
2023-04-26T10:49:16.321Z,60.88
2023-04-26T10:52:17.405Z,60.61
2023-04-26T10:54:52.231Z,60.33
2023-04-26T10:57:22.431Z,61.35
2023-04-26T11:00:24.014Z,62.70
2023-04-26T11:02:58.456Z,61.64
2023-04-26T11:05:57.286Z,61.72
2023-04-26T11:08:30.370Z,61.23
2023-04-26T11:11:12.453Z,61.64
2023-04-26T11:13:42.974Z,60.38
2023-04-26T11:16:13.508Z,60.08
2023-04-26T11:18:44.682Z,59.84
2023-04-26T11:21:17.952Z,58.65
2023-04-26T11:23:56.893Z,58.12
2023-04-26T11:26:33.912Z,57.84
2023-04-26T11:29:03.619Z,58.05
2023-04-26T11:31:32.962Z,55.45
2023-04-26T11:34:05.513Z,56.01
2023-04-26T11:36:34.843Z,55.68
2023-04-26T11:39:05.988Z,53.44
2023-04-26T11:41:34.597Z,50.95
2023-04-26T11:44:03.788Z,52.77
2023-04-26T11:46:32.700Z,52.93
2023-04-26T11:49:02.008Z,51.51
2023-04-26T11:51:32.182Z,50.94
2023-04-26T11:54:02.689Z,50.75
2023-04-26T11:56:32.956Z,50.02
2023-04-26T11:59:02.073Z,49.44
2023-04-26T12:01:31.616Z,50.40
2023-04-26T12:04:01.187Z,49.61
2023-04-26T12:06:34.060Z,48.45
2023-04-26T12:09:05.762Z,47.95
2023-04-26T12:11:36.256Z,46.23
2023-04-26T12:14:07.960Z,47.62
2023-04-26T12:16:37.861Z,46.99
2023-04-26T12:19:07.903Z,45.67
2023-04-26T12:21:43.225Z,45.26
2023-04-26T12:24:25.668Z,43.66
2023-04-26T12:26:56.151Z,45.46
2023-04-26T12:29:25.146Z,44.91
2023-04-26T12:31:53.974Z,42.90
2023-04-26T12:34:23.615Z,44.66
2023-04-26T12:36:52.243Z,45.07
2023-04-26T12:39:21.709Z,44.75
2023-04-26T12:41:50.459Z,43.83
2023-04-26T12:44:22.460Z,45.03
2023-04-26T12:46:51.779Z,43.76
2023-04-26T12:49:20.791Z,44.43
2023-04-26T12:51:49.493Z,43.58
2023-04-26T12:54:18.195Z,43.85
2023-04-26T12:56:46.721Z,44.87
2023-04-26T12:59:15.370Z,44.67
2023-04-26T13:01:45.463Z,44.28
2023-04-26T13:04:15.241Z,44.09
2023-04-26T13:06:44.069Z,44.82
2023-04-26T13:09:14.064Z,43.76
2023-04-26T13:11:42.463Z,45.21
2023-04-26T13:14:11.417Z,44.84
2023-04-26T13:16:43.915Z,45.13
2023-04-26T13:19:14.010Z,44.40
2023-04-26T13:21:42.642Z,44.17
2023-04-26T13:24:11.533Z,44.30
2023-04-26T13:26:39.978Z,42.92
2023-04-26T13:29:08.969Z,43.45
2023-04-26T13:31:38.021Z,43.16
2023-04-26T13:34:07.259Z,42.66
2023-04-26T13:36:37.306Z,40.63
2023-04-26T13:39:07.410Z,40.48
2023-04-26T13:41:35.936Z,37.06
2023-04-26T13:44:05.775Z,38.92
2023-04-26T13:46:34.522Z,37.50
2023-04-26T13:49:03.292Z,37.48
2023-04-26T13:51:33.107Z,38.44
2023-04-26T13:54:03.229Z,37.91
2023-04-26T13:56:31.488Z,38.56
2023-04-26T13:59:01.524Z,40.03
2023-04-26T14:01:30.040Z,39.69
2023-04-26T14:03:59.956Z,40.89
2023-04-26T14:06:28.946Z,38.46
2023-04-26T14:08:57.664Z,40.37
2023-04-26T14:11:27.954Z,40.40
2023-04-26T14:13:57.161Z,39.78
2023-04-26T14:16:26.330Z,39.99
2023-04-26T14:18:55.079Z,37.82
2023-04-26T14:21:23.619Z,37.86
2023-04-26T14:23:52.442Z,37.81
2023-04-26T14:26:21.709Z,38.05
2023-04-26T14:28:52.334Z,38.22
2023-04-26T14:31:22.695Z,38.53
2023-04-26T14:33:51.949Z,38.25
2023-04-26T14:36:20.681Z,38.88
2023-04-26T14:38:49.599Z,38.11
2023-04-26T14:41:18.590Z,37.56
2023-04-26T14:43:47.812Z,37.52
2023-04-26T14:46:17.655Z,36.01
2023-04-26T14:48:46.846Z,36.22
2023-04-26T14:51:15.327Z,36.54
2023-04-26T14:53:43.932Z,36.55
2023-04-26T14:56:12.345Z,37.77
2023-04-26T14:58:42.205Z,37.47
2023-04-26T15:01:11.002Z,36.04
2023-04-26T15:03:41.545Z,35.75
2023-04-26T15:06:10.880Z,37.36
2023-04-26T15:08:39.680Z,37.60
2023-04-26T15:11:08.343Z,37.53
2023-04-26T15:13:37.556Z,37.31
2023-04-26T15:16:08.044Z,37.64
2023-04-26T15:18:37.578Z,37.16
2023-04-26T15:21:07.597Z,36.95
2023-04-26T15:23:36.507Z,35.85
2023-04-26T15:26:04.970Z,36.99
2023-04-26T15:28:34.420Z,36.58
2023-04-26T15:31:04.514Z,34.49
2023-04-26T15:33:33.690Z,36.34
2023-04-26T15:36:02.313Z,36.32
2023-04-26T15:38:32.380Z,36.37
2023-04-26T15:41:00.556Z,36.33
2023-04-26T15:43:29.472Z,36.82
2023-04-26T15:45:58.143Z,37.19
2023-04-26T15:48:27.525Z,37.16
2023-04-26T15:50:57.122Z,37.37
2023-04-26T15:53:26.571Z,37.34
2023-04-26T15:55:56.489Z,37.41
2023-04-26T15:58:25.540Z,37.93
2023-04-26T16:00:53.887Z,37.94
2023-04-26T16:03:22.955Z,38.22
2023-04-26T16:05:52.246Z,37.88
2023-04-26T16:08:39.401Z,37.88
2023-04-26T16:11:10.280Z,37.27
2023-04-26T16:13:39.128Z,37.82
2023-04-26T16:16:10.910Z,37.79
2023-04-26T16:18:40.554Z,38.02
2023-04-26T16:21:10.175Z,38.27
2023-04-26T16:23:39.729Z,38.66
2023-04-26T16:26:09.688Z,38.87
2023-04-26T16:28:38.433Z,39.26
2023-04-26T16:31:07.493Z,38.72
2023-04-26T16:33:36.445Z,38.43
2023-04-26T16:36:05.267Z,38.99
2023-04-26T16:38:34.192Z,39.58
2023-04-26T16:41:02.667Z,40.18
2023-04-26T16:43:33.196Z,40.41
2023-04-26T16:46:02.893Z,40.03
2023-04-26T16:48:33.376Z,39.97
2023-04-26T16:51:02.533Z,39.28
2023-04-26T16:53:33.092Z,40.25
2023-04-26T16:56:01.890Z,40.91
2023-04-26T16:58:32.203Z,40.78
2023-04-26T17:01:00.487Z,40.13
2023-04-26T17:03:29.620Z,41.11
2023-04-26T17:05:59.188Z,41.75
2023-04-26T17:08:28.088Z,41.80
2023-04-26T17:10:56.526Z,41.37
2023-04-26T17:13:29.390Z,41.93
2023-04-26T17:15:59.541Z,41.48
2023-04-26T17:18:28.575Z,42.50
2023-04-26T17:20:57.801Z,42.98
2023-04-26T17:23:26.514Z,42.57
2023-04-26T17:25:55.525Z,42.96
2023-04-26T17:28:24.154Z,42.82
2023-04-26T17:30:52.614Z,42.61
2023-04-26T17:33:22.978Z,43.42
2023-04-26T17:35:51.435Z,42.28
2023-04-26T17:38:20.574Z,43.15
2023-04-26T17:40:53.237Z,42.59
2023-04-26T17:43:22.697Z,43.23
2023-04-26T17:45:51.050Z,43.96
2023-04-26T17:48:19.747Z,44.13
2023-04-26T17:50:51.071Z,43.12
2023-04-26T17:53:20.042Z,43.62
2023-04-26T17:55:49.567Z,44.32
2023-04-26T17:58:18.407Z,44.65
2023-04-26T18:00:47.048Z,44.34
2023-04-26T18:03:16.024Z,44.70
2023-04-26T18:05:44.459Z,45.77
2023-04-26T18:08:14.472Z,45.80
2023-04-26T18:10:42.668Z,45.76
2023-04-26T18:13:12.066Z,45.36
2023-04-26T18:15:40.683Z,45.86
2023-04-26T18:18:09.796Z,46.01
2023-04-26T18:20:38.252Z,46.16
2023-04-26T18:23:07.053Z,47.00
2023-04-26T18:25:37.061Z,46.81
2023-04-26T18:28:05.874Z,46.40
2023-04-26T18:30:34.314Z,46.47
2023-04-26T18:33:03.208Z,47.32
2023-04-26T18:35:32.233Z,47.67
2023-04-26T18:38:01.136Z,46.87
2023-04-26T18:40:29.488Z,46.81
2023-04-26T18:43:00.247Z,46.91
2023-04-26T18:45:28.734Z,47.45
2023-04-26T18:47:57.681Z,48.30
2023-04-26T18:50:26.178Z,48.02
2023-04-26T18:52:54.827Z,48.33
2023-04-26T18:55:23.382Z,48.18
2023-04-26T18:57:52.199Z,48.46
2023-04-26T19:00:22.864Z,48.75
2023-04-26T19:02:52.159Z,48.83
2023-04-26T19:05:21.138Z,49.38
2023-04-26T19:07:53.130Z,50.14
2023-04-26T19:10:23.982Z,49.73
2023-04-26T19:12:52.988Z,49.78
2023-04-26T19:15:22.794Z,50.35
2023-04-26T19:17:52.839Z,50.14
2023-04-26T19:20:21.650Z,50.24
2023-04-26T19:22:50.471Z,50.86
2023-04-26T19:25:23.049Z,50.38
2023-04-26T19:27:52.394Z,50.85
2023-04-26T19:30:22.450Z,50.58
2023-04-26T19:32:51.296Z,50.57
2023-04-26T19:35:20.011Z,50.84
2023-04-26T19:37:48.972Z,51.55
2023-04-26T19:40:17.613Z,51.47
2023-04-26T19:42:46.766Z,51.60
2023-04-26T19:45:15.110Z,51.78
2023-04-26T19:47:45.319Z,51.65
2023-04-26T19:50:14.198Z,52.17
2023-04-26T19:52:43.114Z,52.61
2023-04-26T19:55:11.596Z,52.59
2023-04-26T19:57:41.162Z,51.86
2023-04-26T20:00:11.760Z,52.80
2023-04-26T20:02:40.702Z,52.91
2023-04-26T20:05:11.928Z,52.70
2023-04-26T20:07:41.024Z,53.04
2023-04-26T20:10:10.932Z,52.53
2023-04-26T20:12:39.674Z,52.81
2023-04-26T20:15:09.628Z,53.20
2023-04-26T20:17:38.798Z,53.07
2023-04-26T20:20:08.882Z,52.79
2023-04-26T20:22:39.293Z,53.21
2023-04-26T20:25:08.020Z,52.88
2023-04-26T20:27:37.119Z,53.01
2023-04-26T20:30:07.309Z,53.00
2023-04-26T20:32:36.427Z,52.75
2023-04-26T20:35:05.316Z,53.09
2023-04-26T20:37:34.059Z,53.79
2023-04-26T20:40:05.142Z,53.37
2023-04-26T20:42:33.932Z,53.82
2023-04-26T20:45:02.658Z,53.64
2023-04-26T20:47:32.260Z,54.09
2023-04-26T20:50:00.673Z,55.07
2023-04-26T20:52:29.381Z,55.23
2023-04-26T20:54:58.051Z,54.77
2023-04-26T20:57:28.224Z,55.37
2023-04-26T20:59:56.365Z,56.17
2023-04-26T21:02:25.161Z,55.57
2023-04-26T21:04:54.002Z,55.52
2023-04-26T21:07:22.912Z,55.75
2023-04-26T21:09:51.862Z,56.15
2023-04-26T21:12:20.547Z,55.75
2023-04-26T21:14:50.363Z,55.97
2023-04-26T21:17:19.820Z,56.52
2023-04-26T21:19:48.536Z,56.43
2023-04-26T21:22:17.636Z,56.63
2023-04-26T21:24:46.003Z,56.68
2023-04-26T21:27:14.795Z,56.57
2023-04-26T21:29:43.274Z,56.29
2023-04-26T21:32:13.618Z,56.86
2023-04-26T21:34:42.029Z,56.91
2023-04-26T21:37:10.810Z,57.42
2023-04-26T21:39:39.217Z,57.70
2023-04-26T21:42:08.246Z,57.61
2023-04-26T21:44:36.823Z,57.40
2023-04-26T21:47:05.936Z,57.28
2023-04-26T21:49:35.851Z,57.35
2023-04-26T21:52:04.610Z,57.48
2023-04-26T21:54:33.025Z,57.56
2023-04-26T21:57:02.563Z,58.40
2023-04-26T21:59:31.218Z,58.05
2023-04-26T22:02:01.294Z,58.53
2023-04-26T22:04:29.551Z,59.79
2023-04-26T22:06:59.710Z,59.02
2023-04-26T22:09:28.422Z,59.81
2023-04-26T22:11:57.192Z,59.71
2023-04-26T22:14:25.742Z,59.55
2023-04-26T22:16:54.791Z,59.26
2023-04-26T22:19:23.389Z,59.74
2023-04-26T22:21:53.874Z,59.53
2023-04-26T22:24:25.092Z,59.76
2023-04-26T22:26:54.087Z,60.24
2023-04-26T22:29:22.758Z,59.54
2023-04-26T22:31:51.685Z,60.56
2023-04-26T22:34:20.573Z,60.39
2023-04-26T22:36:49.505Z,60.12
2023-04-26T22:39:18.220Z,59.79
2023-04-26T22:41:48.318Z,60.88
2023-04-26T22:44:16.789Z,61.27
2023-04-26T22:46:45.804Z,60.76
2023-04-26T22:49:14.430Z,59.23
2023-04-26T22:51:48.187Z,60.54
2023-04-26T22:54:22.558Z,60.14
2023-04-26T22:56:53.078Z,60.04
2023-04-26T22:59:21.913Z,61.18
2023-04-26T23:01:50.910Z,60.68
2023-04-26T23:04:19.565Z,61.21
2023-04-26T23:06:48.479Z,60.34
2023-04-26T23:09:16.882Z,60.79
2023-04-26T23:11:45.600Z,61.13
2023-04-26T23:14:15.871Z,60.35
2023-04-26T23:16:45.995Z,60.61
2023-04-26T23:19:14.687Z,61.32
2023-04-26T23:21:43.984Z,61.54
2023-04-26T23:24:12.341Z,61.39
2023-04-26T23:26:41.034Z,61.60
2023-04-26T23:29:09.840Z,62.06
2023-04-26T23:31:40.034Z,61.85
2023-04-26T23:34:08.468Z,61.71
2023-04-26T23:36:37.071Z,61.75
2023-04-26T23:39:05.735Z,61.92
2023-04-26T23:41:34.811Z,61.84
2023-04-26T23:44:03.508Z,61.48
2023-04-26T23:46:33.006Z,62.52
2023-04-26T23:49:02.915Z,62.47
2023-04-26T23:51:32.455Z,62.08
2023-04-26T23:54:00.839Z,63.00
2023-04-26T23:56:29.548Z,62.04
2023-04-26T23:58:58.406Z,62.20
